createdAt,value
2018-12-10T00:03:52.172Z,92.04
2018-12-10T00:13:52.229Z,92.38
2018-12-10T00:23:52.193Z,91.97
2018-12-10T00:33:52.182Z,91.48
2018-12-10T00:43:52.242Z,91.10
2018-12-10T00:53:52.229Z,90.81
2018-12-10T01:03:52.256Z,91.05
2018-12-10T01:13:52.242Z,90.70
2018-12-10T01:23:52.274Z,90.06
2018-12-10T01:33:52.190Z,90.13
2018-12-10T01:43:52.238Z,89.89
2018-12-10T01:53:52.265Z,90.17
2018-12-10T02:03:52.189Z,89.70
2018-12-10T02:13:52.196Z,90.07
2018-12-10T02:23:52.169Z,90.04
2018-12-10T02:33:52.143Z,89.82
2018-12-10T02:43:52.261Z,90.15
2018-12-10T02:53:52.231Z,90.65
2018-12-10T03:03:52.145Z,91.32
2018-12-10T03:13:52.162Z,91.76
2018-12-10T03:23:52.244Z,92.57
2018-12-10T03:33:52.220Z,93.12
2018-12-10T03:43:52.195Z,92.99
2018-12-10T03:53:52.139Z,93.10
2018-12-10T04:03:52.164Z,93.02
2018-12-10T04:13:52.207Z,92.83
2018-12-10T04:23:52.216Z,93.25
2018-12-10T04:33:53.009Z,93.87
2018-12-10T04:43:52.155Z,94.59
2018-12-10T04:53:52.209Z,94.70
2018-12-10T05:03:52.165Z,94.93
2018-12-10T05:13:52.277Z,95.58
2018-12-10T05:23:52.435Z,96.07
2018-12-10T05:33:52.245Z,95.92
2018-12-10T05:43:53.303Z,95.84
2018-12-10T05:53:52.159Z,95.94
2018-12-10T06:03:52.136Z,96.57
2018-12-10T06:13:52.212Z,96.56
2018-12-10T06:23:52.134Z,96.29
2018-12-10T06:33:52.106Z,96.46
2018-12-10T06:43:52.042Z,96.67
2018-12-10T06:53:52.152Z,96.77
2018-12-10T07:03:52.068Z,97.08
2018-12-10T07:13:52.066Z,97.26
2018-12-10T07:23:52.064Z,97.38
2018-12-10T07:33:52.231Z,96.75
2018-12-10T07:43:52.123Z,96.22
2018-12-10T07:53:52.010Z,96.38
2018-12-10T08:03:52.165Z,96.34
2018-12-10T08:13:52.138Z,96.37
2018-12-10T08:23:52.414Z,96.34
2018-12-10T08:33:52.280Z,95.94
2018-12-10T08:43:53.065Z,95.64
2018-12-10T08:53:52.163Z,95.56
2018-12-10T09:03:52.177Z,94.95
2018-12-10T09:13:52.113Z,94.25
2018-12-10T09:23:53.034Z,92.92
2018-12-10T09:33:52.244Z,92.07
2018-12-10T09:43:52.134Z,91.47
2018-12-10T09:53:52.060Z,88.87
2018-12-10T10:03:52.108Z,87.66
2018-12-10T10:13:52.261Z,88.40
2018-12-10T10:23:52.151Z,89.39
2018-12-10T10:33:52.103Z,88.77
2018-12-10T10:43:52.110Z,88.63
2018-12-10T10:53:52.124Z,89.78
2018-12-10T11:03:52.131Z,89.29
2018-12-10T11:13:52.118Z,89.65
2018-12-10T11:23:52.233Z,87.00
2018-12-10T11:33:52.130Z,86.67
2018-12-10T11:43:52.118Z,85.96
2018-12-10T11:53:52.131Z,84.29
2018-12-10T12:03:52.138Z,84.33
2018-12-10T12:13:52.086Z,83.77
2018-12-10T12:23:52.214Z,83.97
2018-12-10T12:33:52.070Z,85.33
2018-12-10T12:43:52.105Z,85.78
2018-12-10T12:53:53.142Z,84.58
2018-12-10T13:03:54.604Z,78.83
2018-12-10T13:13:52.115Z,80.91
2018-12-10T13:23:52.107Z,82.08
2018-12-10T13:33:52.140Z,83.05
2018-12-10T13:43:53.081Z,82.92
2018-12-10T13:53:51.940Z,84.69
2018-12-10T14:03:52.963Z,88.75
2018-12-10T14:13:52.050Z,93.14
2018-12-10T14:23:52.204Z,94.85
2018-12-10T14:33:52.227Z,95.91
2018-12-10T14:43:52.114Z,96.27
2018-12-10T14:53:52.078Z,96.75
2018-12-10T15:03:52.077Z,96.93
2018-12-10T15:13:52.123Z,95.91
2018-12-10T15:23:52.105Z,95.84
2018-12-10T15:33:52.028Z,95.83
2018-12-10T15:43:52.187Z,95.21
2018-12-10T15:53:52.058Z,95.24
2018-12-10T16:03:52.205Z,94.90
2018-12-10T16:13:52.011Z,94.86
2018-12-10T16:23:52.060Z,95.18
2018-12-10T16:33:52.090Z,95.35
2018-12-10T16:43:52.069Z,95.63
2018-12-10T16:53:52.056Z,95.95
2018-12-10T17:03:52.091Z,95.95
2018-12-10T17:13:52.039Z,96.03
2018-12-10T17:23:52.150Z,96.47
2018-12-10T17:33:52.073Z,96.56
2018-12-10T17:43:51.996Z,97.05
2018-12-10T17:53:52.010Z,97.23
2018-12-10T18:03:52.038Z,97.33
2018-12-10T18:13:52.007Z,97.91
2018-12-10T18:23:52.075Z,98.04
2018-12-10T18:33:52.039Z,98.49
2018-12-10T18:43:52.053Z,98.46
2018-12-10T18:53:52.060Z,98.34
2018-12-10T19:03:52.112Z,98.14
2018-12-10T19:13:52.011Z,98.24
2018-12-10T19:23:51.989Z,98.32
2018-12-10T19:33:51.906Z,98.58
2018-12-10T19:43:52.008Z,98.39
2018-12-10T19:53:52.065Z,98.00
2018-12-10T20:03:52.072Z,97.79
2018-12-10T20:13:52.030Z,97.53
2018-12-10T20:23:52.020Z,97.39
2018-12-10T20:33:51.914Z,97.70
2018-12-10T20:43:51.978Z,97.33
2018-12-10T20:53:52.221Z,97.20
2018-12-10T21:03:52.077Z,97.32
2018-12-10T21:13:52.022Z,97.51
2018-12-10T21:23:51.907Z,97.22
2018-12-10T21:33:52.112Z,96.98
2018-12-10T21:43:51.926Z,96.60
2018-12-10T21:53:52.017Z,95.96
2018-12-10T22:03:52.101Z,95.55
2018-12-10T22:13:52.016Z,95.39
2018-12-10T22:23:52.008Z,94.71
2018-12-10T22:33:51.991Z,94.64
2018-12-10T22:43:52.039Z,94.09
2018-12-10T22:53:52.001Z,93.79
2018-12-10T23:03:51.925Z,93.74
2018-12-10T23:13:52.085Z,93.96
2018-12-10T23:23:52.055Z,94.37
2018-12-10T23:33:51.912Z,94.12
2018-12-10T23:43:51.958Z,94.14
2018-12-10T23:53:51.951Z,94.19
